createdAt,value
2023-04-03T00:01:42.787Z,3.50
2023-04-03T00:04:09.818Z,3.30
2023-04-03T00:06:36.925Z,3.30
2023-04-03T00:09:04.219Z,3.40
2023-04-03T00:11:31.217Z,3.40
2023-04-03T00:13:58.177Z,3.50
2023-04-03T00:16:25.190Z,3.60
2023-04-03T00:18:52.185Z,3.60
2023-04-03T00:21:19.122Z,3.70
2023-04-03T00:23:46.116Z,3.80
2023-04-03T00:26:13.115Z,3.70
2023-04-03T00:28:41.498Z,3.80
2023-04-03T00:31:08.548Z,3.80
2023-04-03T00:33:37.541Z,3.80
2023-04-03T00:36:08.684Z,3.70
2023-04-03T00:38:35.850Z,3.70
2023-04-03T00:41:02.806Z,3.70
2023-04-03T00:43:29.805Z,3.70
2023-04-03T00:45:57.692Z,3.70
2023-04-03T00:48:24.587Z,3.70
2023-04-03T00:50:51.830Z,3.60
2023-04-03T00:53:27.670Z,3.60
2023-04-03T00:55:56.368Z,3.70
2023-04-03T00:58:27.269Z,3.80
2023-04-03T01:00:57.297Z,3.80
2023-04-03T01:03:25.463Z,3.70
2023-04-03T01:05:53.906Z,3.60
2023-04-03T01:08:21.086Z,3.60
2023-04-03T01:10:50.075Z,3.60
2023-04-03T01:13:19.555Z,3.50
2023-04-03T01:15:46.612Z,3.70
2023-04-03T01:18:13.525Z,3.60
2023-04-03T01:21:03.481Z,3.60
2023-04-03T01:23:42.789Z,3.60
2023-04-03T01:26:12.543Z,3.60
2023-04-03T01:28:39.601Z,3.80
2023-04-03T01:31:26.826Z,3.80
2023-04-03T01:33:56.107Z,4.00
2023-04-03T01:36:27.676Z,3.80
2023-04-03T01:38:55.717Z,3.90
2023-04-03T01:41:24.077Z,3.90
2023-04-03T01:43:54.310Z,3.90
2023-04-03T01:46:21.499Z,3.90
2023-04-03T01:48:48.770Z,3.90
2023-04-03T01:51:16.333Z,4.00
2023-04-03T01:53:43.330Z,3.90
2023-04-03T01:56:10.370Z,3.90
2023-04-03T01:58:37.361Z,3.80
2023-04-03T02:01:04.390Z,3.80
2023-04-03T02:03:32.016Z,3.90
2023-04-03T02:05:59.360Z,3.90
2023-04-03T02:08:26.837Z,3.80
2023-04-03T02:10:53.924Z,4.50
2023-04-03T02:13:21.064Z,3.80
2023-04-03T02:15:48.805Z,3.90
2023-04-03T02:18:17.866Z,3.90
2023-04-03T02:20:44.828Z,3.80
2023-04-03T02:23:11.869Z,3.80
2023-04-03T02:25:39.123Z,3.80
2023-04-03T02:28:06.621Z,3.80
2023-04-03T02:30:33.591Z,3.90
2023-04-03T02:33:01.008Z,3.80
2023-04-03T02:35:28.068Z,3.80
2023-04-03T02:37:57.059Z,3.80
2023-04-03T02:40:24.447Z,4.00
2023-04-03T02:42:51.639Z,3.90
2023-04-03T02:45:20.041Z,4.00
2023-04-03T02:47:47.018Z,3.90
2023-04-03T02:50:14.063Z,4.00
2023-04-03T02:52:41.062Z,4.00
2023-04-03T02:55:08.424Z,3.90
2023-04-03T02:57:36.531Z,3.90
2023-04-03T03:00:04.301Z,4.00
2023-04-03T03:02:31.433Z,4.00
2023-04-03T03:04:58.562Z,3.90
2023-04-03T03:07:25.721Z,3.90
2023-04-03T03:09:52.722Z,3.80
2023-04-03T03:12:24.417Z,3.80
2023-04-03T03:14:51.566Z,3.60
2023-04-03T03:17:18.622Z,3.40
2023-04-03T03:19:46.834Z,3.10
2023-04-03T03:22:13.905Z,2.80
2023-04-03T03:24:40.794Z,2.80
2023-04-03T03:27:07.755Z,2.70
2023-04-03T03:29:34.919Z,2.50
2023-04-03T03:32:03.578Z,2.50
2023-04-03T03:34:30.607Z,2.30
2023-04-03T03:36:57.626Z,2.20
2023-04-03T03:39:24.643Z,2.20
2023-04-03T03:41:51.683Z,2.20
2023-04-03T03:44:18.686Z,2.20
2023-04-03T03:46:45.882Z,2.20
2023-04-03T03:49:13.041Z,2.00
2023-04-03T03:51:41.615Z,1.90
2023-04-03T03:54:09.010Z,1.80
2023-04-03T03:56:36.550Z,1.90
2023-04-03T03:59:03.705Z,1.90
2023-04-03T04:01:32.248Z,2.00
2023-04-03T04:03:59.272Z,1.90
2023-04-03T04:06:30.510Z,2.00
2023-04-03T04:09:01.076Z,2.00
2023-04-03T04:11:28.870Z,1.90
2023-04-03T04:13:56.721Z,1.90
2023-04-03T04:16:27.067Z,1.90
2023-04-03T04:18:55.498Z,1.70
2023-04-03T04:21:23.399Z,1.70
2023-04-03T04:23:52.610Z,1.60
2023-04-03T04:26:21.348Z,1.70
2023-04-03T04:28:48.590Z,1.80
2023-04-03T04:31:17.513Z,1.80
2023-04-03T04:33:44.514Z,1.70
2023-04-03T04:36:16.017Z,1.80
2023-04-03T04:38:45.539Z,1.80
2023-04-03T04:41:12.964Z,1.70
2023-04-03T04:43:40.598Z,1.70
2023-04-03T04:46:09.174Z,1.50
2023-04-03T04:48:42.339Z,1.80
2023-04-03T04:51:10.476Z,1.50
2023-04-03T04:53:38.881Z,1.50
2023-04-03T04:56:06.887Z,1.60
2023-04-03T04:58:35.546Z,1.60
2023-04-03T05:01:04.330Z,1.60
2023-04-03T05:03:33.112Z,1.40
2023-04-03T05:06:00.369Z,1.50
2023-04-03T05:08:29.387Z,1.50
2023-04-03T05:10:56.525Z,1.50
2023-04-03T05:13:26.417Z,1.60
2023-04-03T05:15:54.241Z,1.60
2023-04-03T05:18:21.681Z,1.60
2023-04-03T05:20:50.569Z,1.60
2023-04-03T05:23:19.111Z,1.80
2023-04-03T05:25:48.114Z,1.80
2023-04-03T05:28:15.808Z,1.70
2023-04-03T05:30:42.924Z,1.60
2023-04-03T05:33:10.108Z,1.70
2023-04-03T05:35:47.075Z,2.50
2023-04-03T05:38:19.806Z,2.00
2023-04-03T05:40:47.422Z,2.10
2023-04-03T05:43:14.465Z,2.20
2023-04-03T05:45:45.556Z,2.20
2023-04-03T05:48:14.689Z,2.40
2023-04-03T05:50:43.472Z,2.20
2023-04-03T05:53:27.216Z,2.30
2023-04-03T05:55:55.701Z,2.30
2023-04-03T05:58:23.059Z,2.40
2023-04-03T06:00:52.614Z,2.30
2023-04-03T06:03:19.838Z,2.30
2023-04-03T06:05:47.491Z,2.40
2023-04-03T06:08:15.663Z,2.60
2023-04-03T06:10:42.604Z,2.50
2023-04-03T06:13:09.584Z,2.70
2023-04-03T06:15:36.460Z,2.80
2023-04-03T06:18:03.967Z,2.80
2023-04-03T06:20:32.229Z,3.00
2023-04-03T06:22:59.473Z,3.00
2023-04-03T06:25:28.017Z,3.10
2023-04-03T06:27:56.712Z,3.20
2023-04-03T06:30:23.756Z,3.40
2023-04-03T06:32:51.374Z,3.50
2023-04-03T06:35:18.435Z,3.60
2023-04-03T06:37:45.565Z,3.80
2023-04-03T06:40:18.944Z,3.90
2023-04-03T06:42:46.139Z,4.00
2023-04-03T06:45:13.558Z,4.20
2023-04-03T06:47:40.688Z,4.20
2023-04-03T06:50:10.015Z,4.40
2023-04-03T06:52:37.016Z,4.60
2023-04-03T06:55:04.667Z,4.90
2023-04-03T06:57:31.853Z,4.90
2023-04-03T06:59:58.835Z,4.90
2023-04-03T07:02:25.846Z,4.90
2023-04-03T07:04:52.931Z,5.10
2023-04-03T07:07:20.028Z,5.20
2023-04-03T07:09:49.050Z,5.40
2023-04-03T07:12:17.039Z,5.60
2023-04-03T07:14:43.994Z,5.70
2023-04-03T07:17:11.177Z,5.90
2023-04-03T07:19:38.129Z,5.90
2023-04-03T07:22:05.103Z,5.80
2023-04-03T07:24:32.047Z,6.10
2023-04-03T07:26:59.047Z,6.10
2023-04-03T07:29:26.035Z,6.30
2023-04-03T07:31:53.653Z,6.60
2023-04-03T07:34:20.704Z,6.80
2023-04-03T07:36:47.929Z,6.90
2023-04-03T07:39:14.833Z,6.90
2023-04-03T07:41:41.766Z,6.90
2023-04-03T07:44:10.858Z,7.00
2023-04-03T07:46:38.095Z,7.10
2023-04-03T07:49:05.788Z,7.20
2023-04-03T07:51:32.840Z,7.40
2023-04-03T07:53:59.782Z,7.10
2023-04-03T07:56:26.738Z,7.20
2023-04-03T07:58:54.772Z,7.50
2023-04-03T08:01:21.863Z,7.90
2023-04-03T08:03:49.076Z,9.00
2023-04-03T08:06:18.597Z,9.60
2023-04-03T08:08:47.120Z,9.80
2023-04-03T08:11:14.112Z,9.70
2023-04-03T08:13:42.596Z,9.50
2023-04-03T08:16:10.713Z,9.20
2023-04-03T08:18:38.069Z,9.70
2023-04-03T08:21:09.178Z,9.10
2023-04-03T08:23:36.376Z,9.20
2023-04-03T08:26:07.424Z,9.30
2023-04-03T08:28:34.430Z,9.10
2023-04-03T08:31:07.116Z,7.90
2023-04-03T08:33:34.942Z,7.40
2023-04-03T08:36:02.051Z,7.30
2023-04-03T08:38:29.086Z,7.40
2023-04-03T08:41:14.468Z,7.30
2023-04-03T08:43:54.394Z,7.70
2023-04-03T08:46:23.887Z,8.60
2023-04-03T08:48:51.776Z,9.90
2023-04-03T08:51:21.222Z,10.70
2023-04-03T08:53:59.531Z,10.90
2023-04-03T08:56:26.948Z,11.70
2023-04-03T08:58:57.276Z,12.70
2023-04-03T09:01:27.470Z,12.70
2023-04-03T09:03:54.775Z,12.70
2023-04-03T09:06:31.624Z,12.30
2023-04-03T09:09:13.488Z,12.60
2023-04-03T09:11:48.212Z,12.10
2023-04-03T09:14:35.305Z,12.90
2023-04-03T09:17:22.509Z,12.90
2023-04-03T09:19:49.499Z,13.00
2023-04-03T09:22:16.458Z,14.00
2023-04-03T09:24:44.454Z,13.80
2023-04-03T09:27:13.128Z,13.60
2023-04-03T09:29:41.365Z,14.20
2023-04-03T09:32:19.913Z,15.40
2023-04-03T09:34:48.510Z,15.30
2023-04-03T09:37:36.532Z,14.80
2023-04-03T09:40:05.505Z,14.70
2023-04-03T09:42:33.098Z,14.20
2023-04-03T09:45:01.205Z,14.00
2023-04-03T09:47:29.616Z,13.70
2023-04-03T09:50:15.117Z,12.50
2023-04-03T09:52:43.634Z,11.10
2023-04-03T09:55:30.963Z,10.30
2023-04-03T09:58:02.243Z,10.50
2023-04-03T10:00:31.959Z,11.00
2023-04-03T10:02:59.152Z,10.90
2023-04-03T10:05:37.246Z,10.40
2023-04-03T10:08:25.075Z,10.60
2023-04-03T10:11:11.033Z,10.20
2023-04-03T10:13:51.246Z,10.70
2023-04-03T10:16:19.768Z,11.30
2023-04-03T10:19:04.150Z,11.40
2023-04-03T10:21:37.348Z,11.30
2023-04-03T10:24:10.807Z,12.00
2023-04-03T10:26:52.515Z,11.10
2023-04-03T10:29:25.210Z,11.90
2023-04-03T10:32:00.811Z,12.10
2023-04-03T10:34:32.873Z,11.40
2023-04-03T10:37:12.118Z,12.20
2023-04-03T10:39:39.082Z,11.60
2023-04-03T10:42:21.483Z,11.30
2023-04-03T10:45:07.358Z,10.80
2023-04-03T10:47:53.166Z,10.00
2023-04-03T10:50:20.268Z,10.50
2023-04-03T10:52:57.807Z,10.80
2023-04-03T10:55:27.810Z,10.70
2023-04-03T10:57:57.519Z,10.70
2023-04-03T11:00:32.017Z,11.00
2023-04-03T11:03:01.217Z,11.30
2023-04-03T11:05:28.218Z,10.70
2023-04-03T11:07:56.958Z,10.60
2023-04-03T11:10:35.888Z,11.20
2023-04-03T11:13:08.039Z,11.90
2023-04-03T11:15:35.027Z,11.10
2023-04-03T11:18:09.795Z,10.60
2023-04-03T11:20:38.962Z,10.10
2023-04-03T11:23:32.737Z,9.30
2023-04-03T11:26:17.091Z,9.70
2023-04-03T11:28:44.151Z,10.20
2023-04-03T11:31:14.271Z,10.40
2023-04-03T11:33:59.596Z,10.20
2023-04-03T11:36:33.115Z,10.20
2023-04-03T11:39:24.139Z,9.90
2023-04-03T11:41:53.398Z,10.00
2023-04-03T11:44:33.819Z,10.00
2023-04-03T11:47:01.652Z,10.70
2023-04-03T11:49:47.156Z,10.70
2023-04-03T11:52:14.420Z,11.40
2023-04-03T11:54:44.830Z,11.40
2023-04-03T11:57:31.123Z,11.20
2023-04-03T11:59:58.408Z,11.40
2023-04-03T12:02:51.194Z,11.10
2023-04-03T12:05:27.302Z,11.60
2023-04-03T12:08:14.080Z,11.90
2023-04-03T12:10:41.396Z,11.60
2023-04-03T12:13:16.728Z,11.70
2023-04-03T12:15:52.524Z,11.20
2023-04-03T12:18:38.034Z,11.00
2023-04-03T12:21:05.142Z,10.70
2023-04-03T12:23:35.886Z,10.30
2023-04-03T12:26:05.914Z,10.30
2023-04-03T12:28:42.228Z,10.90
2023-04-03T12:31:10.955Z,12.40
2023-04-03T12:34:01.442Z,14.40
2023-04-03T12:36:43.220Z,13.80
2023-04-03T12:39:36.654Z,12.80
2023-04-03T12:42:21.877Z,11.70
2023-04-03T12:45:01.872Z,11.70
2023-04-03T12:47:28.907Z,11.10
2023-04-03T12:49:56.856Z,10.80
2023-04-03T12:52:31.596Z,10.60
2023-04-03T12:54:59.599Z,10.30
2023-04-03T12:57:27.732Z,10.40
2023-04-03T12:59:54.880Z,10.40
2023-04-03T13:02:26.082Z,9.90
2023-04-03T13:04:54.214Z,9.80
2023-04-03T13:07:22.616Z,9.80
2023-04-03T13:10:04.266Z,9.70
2023-04-03T13:12:32.338Z,10.10
2023-04-03T13:15:01.513Z,14.80
2023-04-03T13:17:29.260Z,17.10
2023-04-03T13:19:56.296Z,15.40
2023-04-03T13:22:23.201Z,13.00
2023-04-03T13:24:51.772Z,11.60
2023-04-03T13:27:18.882Z,11.10
2023-04-03T13:29:51.209Z,11.30
2023-04-03T13:32:23.885Z,11.80
2023-04-03T13:34:51.191Z,14.90
2023-04-03T13:37:28.439Z,15.40
2023-04-03T13:40:12.067Z,14.20
2023-04-03T13:42:41.734Z,15.60
2023-04-03T13:45:21.340Z,18.70
2023-04-03T13:47:49.805Z,19.40
2023-04-03T13:50:19.018Z,18.30
2023-04-03T13:52:55.360Z,16.50
2023-04-03T13:55:27.097Z,16.90
2023-04-03T13:58:20.367Z,18.20
2023-04-03T14:00:47.357Z,19.60
2023-04-03T14:03:18.318Z,19.80
2023-04-03T14:05:46.744Z,16.60
2023-04-03T14:08:13.746Z,13.70
2023-04-03T14:10:41.275Z,15.70
2023-04-03T14:13:10.530Z,17.80
2023-04-03T14:15:37.556Z,18.40
2023-04-03T14:18:06.598Z,16.30
2023-04-03T14:20:34.890Z,14.10
2023-04-03T14:23:02.146Z,15.20
2023-04-03T14:25:29.815Z,18.20
2023-04-03T14:27:57.267Z,18.60
2023-04-03T14:30:29.104Z,19.70
2023-04-03T14:32:56.373Z,20.40
2023-04-03T14:35:24.025Z,21.20
2023-04-03T14:37:51.896Z,19.40
2023-04-03T14:40:21.121Z,16.20
2023-04-03T14:42:49.707Z,15.10
2023-04-03T14:45:17.288Z,15.10
2023-04-03T14:47:49.041Z,16.30
2023-04-03T14:50:18.162Z,19.00
2023-04-03T14:52:46.477Z,19.40
2023-04-03T14:55:15.601Z,19.30
2023-04-03T14:57:42.715Z,18.70
2023-04-03T15:00:19.689Z,17.20
2023-04-03T15:02:47.453Z,15.60
2023-04-03T15:05:15.568Z,14.60
2023-04-03T15:07:50.928Z,13.20
2023-04-03T15:10:19.703Z,14.40
2023-04-03T15:12:47.235Z,15.80
2023-04-03T15:15:15.258Z,17.00
2023-04-03T15:17:42.953Z,18.50
2023-04-03T15:20:16.971Z,19.40
2023-04-03T15:22:44.292Z,20.00
2023-04-03T15:25:11.297Z,18.70
2023-04-03T15:27:38.695Z,16.10
2023-04-03T15:30:07.015Z,13.80
2023-04-03T15:32:34.890Z,12.60
2023-04-03T15:35:02.272Z,14.00
2023-04-03T15:37:29.285Z,14.90
2023-04-03T15:39:56.348Z,15.80
2023-04-03T15:42:23.342Z,16.10
2023-04-03T15:44:50.403Z,16.70
2023-04-03T15:47:17.403Z,17.60
2023-04-03T15:49:44.612Z,17.70
2023-04-03T15:52:11.572Z,17.50
2023-04-03T15:54:38.510Z,18.10
2023-04-03T15:57:05.469Z,17.80
2023-04-03T15:59:33.174Z,17.30
2023-04-03T16:02:01.382Z,17.00
2023-04-03T16:04:28.692Z,15.70
2023-04-03T16:06:55.654Z,15.90
2023-04-03T16:09:22.734Z,16.30
2023-04-03T16:11:49.723Z,17.50
2023-04-03T16:14:16.704Z,17.70
2023-04-03T16:16:43.677Z,16.90
2023-04-03T16:19:11.167Z,15.60
2023-04-03T16:21:38.088Z,14.60
2023-04-03T16:24:05.455Z,14.00
2023-04-03T16:26:32.666Z,14.10
2023-04-03T16:28:59.642Z,14.40
2023-04-03T16:31:27.123Z,15.30
2023-04-03T16:33:54.194Z,15.60
2023-04-03T16:36:21.237Z,14.90
2023-04-03T16:38:48.213Z,14.00
2023-04-03T16:41:15.603Z,11.10
2023-04-03T16:46:10.480Z,9.60
2023-04-03T16:48:37.698Z,8.90
2023-04-03T16:51:04.643Z,8.60
2023-04-03T16:53:31.687Z,8.20
2023-04-03T16:55:59.593Z,7.90
2023-04-03T16:58:26.770Z,7.90
2023-04-03T17:00:54.788Z,7.80
2023-04-03T17:03:22.315Z,7.60
2023-04-03T17:05:49.310Z,7.70
2023-04-03T17:08:17.547Z,8.00
2023-04-03T17:10:44.546Z,8.00
2023-04-03T17:13:11.611Z,8.20
2023-04-03T17:15:39.076Z,8.40
2023-04-03T17:18:06.308Z,8.40
2023-04-03T17:20:34.948Z,8.00
2023-04-03T17:23:02.001Z,7.80
2023-04-03T17:25:29.170Z,7.80
2023-04-03T17:27:56.963Z,7.70
2023-04-03T17:30:24.351Z,7.50
2023-04-03T17:32:51.288Z,7.20
2023-04-03T17:35:18.289Z,6.90
2023-04-03T17:37:45.401Z,6.70
2023-04-03T17:40:14.563Z,6.50
2023-04-03T17:42:41.624Z,6.30
2023-04-03T17:45:08.828Z,6.20
2023-04-03T17:47:35.859Z,6.10
2023-04-03T17:50:02.819Z,6.10
2023-04-03T17:52:31.977Z,5.90
2023-04-03T17:54:58.915Z,5.80
2023-04-03T17:57:25.918Z,5.70
2023-04-03T17:59:54.223Z,5.60
2023-04-03T18:02:21.266Z,5.40
2023-04-03T18:04:51.218Z,5.30
2023-04-03T18:07:18.142Z,5.20
2023-04-03T18:09:46.408Z,5.20
2023-04-03T18:12:13.853Z,5.10
2023-04-03T18:14:41.226Z,4.90
2023-04-03T18:17:08.551Z,4.80
2023-04-03T18:19:35.648Z,4.80
2023-04-03T18:22:04.670Z,4.70
2023-04-03T18:24:34.749Z,4.60
2023-04-03T18:27:06.404Z,4.70
2023-04-03T18:29:34.812Z,4.70
2023-04-03T18:32:04.604Z,4.60
2023-04-03T18:34:31.870Z,4.80
2023-04-03T18:36:58.897Z,4.60
2023-04-03T18:39:27.014Z,4.60
2023-04-03T18:41:54.676Z,4.50
2023-04-03T18:44:23.842Z,4.50
2023-04-03T18:46:52.030Z,4.40
2023-04-03T18:49:18.948Z,4.30
2023-04-03T18:51:46.337Z,4.20
2023-04-03T18:54:13.268Z,4.30
2023-04-03T18:56:40.269Z,4.20
2023-04-03T18:59:07.276Z,4.30
2023-04-03T19:01:34.902Z,4.30
2023-04-03T19:04:02.156Z,4.30
2023-04-03T19:06:29.308Z,4.40
2023-04-03T19:08:56.302Z,4.30
2023-04-03T19:11:23.285Z,4.40
2023-04-03T19:16:20.166Z,4.20
2023-04-03T19:18:47.125Z,4.20
2023-04-03T19:21:16.526Z,4.30
2023-04-03T19:23:44.989Z,4.10
2023-04-03T19:26:13.498Z,4.20
2023-04-03T19:28:41.749Z,4.20
2023-04-03T19:31:16.259Z,4.20
2023-04-03T19:33:44.124Z,4.10
2023-04-03T19:36:11.888Z,4.00
2023-04-03T19:38:38.823Z,3.90
2023-04-03T19:41:10.233Z,3.90
2023-04-03T19:43:37.505Z,3.90
2023-04-03T19:46:06.243Z,3.90
2023-04-03T19:48:35.499Z,3.90
2023-04-03T19:51:04.275Z,3.90
2023-04-03T19:53:31.474Z,3.90
2023-04-03T19:55:58.612Z,3.70
2023-04-03T19:58:27.938Z,3.70
2023-04-03T20:00:55.487Z,3.50
2023-04-03T20:03:23.802Z,3.70
2023-04-03T20:05:51.266Z,3.50
2023-04-03T20:08:18.477Z,3.40
2023-04-03T20:10:45.840Z,3.50
2023-04-03T20:13:14.122Z,3.30
2023-04-03T20:15:42.060Z,3.30
2023-04-03T20:18:18.091Z,3.40
2023-04-03T20:20:52.134Z,3.30
2023-04-03T20:23:19.564Z,3.20
2023-04-03T20:25:57.538Z,3.10
2023-04-03T20:28:34.283Z,3.10
2023-04-03T20:31:02.501Z,3.10
2023-04-03T20:33:30.188Z,3.10
2023-04-03T20:35:57.652Z,3.10
2023-04-03T20:38:24.698Z,3.10
2023-04-03T20:40:52.320Z,3.00
2023-04-03T20:43:19.653Z,2.90
2023-04-03T20:45:48.126Z,2.90
2023-04-03T20:48:15.366Z,2.80
2023-04-03T20:50:42.594Z,2.80
2023-04-03T20:53:09.819Z,2.80
2023-04-03T20:55:37.428Z,2.80
2023-04-03T20:58:04.701Z,2.80
2023-04-03T21:00:34.240Z,2.70
2023-04-03T21:03:01.876Z,2.80
2023-04-03T21:05:30.444Z,2.60
2023-04-03T21:08:16.465Z,2.60
2023-04-03T21:11:01.885Z,2.60
2023-04-03T21:13:47.241Z,2.80
2023-04-03T21:16:14.112Z,2.70
2023-04-03T21:18:55.596Z,2.70
2023-04-03T21:21:24.643Z,3.30
2023-04-03T21:23:52.757Z,2.70
2023-04-03T21:26:21.707Z,2.60
2023-04-03T21:28:52.406Z,2.50
2023-04-03T21:31:20.730Z,2.60
2023-04-03T21:33:47.817Z,2.40
2023-04-03T21:36:15.484Z,2.50
2023-04-03T21:38:42.678Z,2.40
2023-04-03T21:41:09.636Z,2.50
2023-04-03T21:43:36.559Z,2.50
2023-04-03T21:46:05.710Z,2.30
2023-04-03T21:48:32.834Z,2.30
2023-04-03T21:51:03.862Z,2.30
2023-04-03T21:53:30.832Z,2.30
2023-04-03T21:55:57.857Z,2.20
2023-04-03T21:58:32.138Z,2.30
2023-04-03T22:01:08.434Z,2.20
2023-04-03T22:03:35.364Z,2.10
2023-04-03T22:06:02.350Z,2.20
2023-04-03T22:08:29.503Z,2.10
2023-04-03T22:11:04.015Z,2.20
2023-04-03T22:13:31.020Z,2.20
2023-04-03T22:15:59.429Z,2.20
2023-04-03T22:18:27.264Z,2.10
2023-04-03T22:20:55.098Z,2.20
2023-04-03T22:23:22.478Z,2.20
2023-04-03T22:26:02.804Z,2.10
2023-04-03T22:28:30.517Z,2.10
2023-04-03T22:30:57.487Z,2.00
2023-04-03T22:33:24.463Z,2.00
2023-04-03T22:35:51.788Z,2.00
2023-04-03T22:38:18.822Z,2.00
2023-04-03T22:40:45.820Z,1.90
2023-04-03T22:43:12.891Z,1.90
2023-04-03T22:45:50.384Z,1.90
2023-04-03T22:48:17.564Z,1.90
2023-04-03T22:50:44.725Z,1.90
2023-04-03T22:53:11.678Z,1.80
2023-04-03T22:55:38.641Z,1.70
2023-04-03T22:58:05.885Z,1.70
2023-04-03T23:00:32.934Z,1.70
2023-04-03T23:03:01.719Z,1.70
2023-04-03T23:05:29.229Z,1.70
2023-04-03T23:07:56.167Z,1.70
2023-04-03T23:10:23.183Z,1.70
2023-04-03T23:12:50.402Z,1.70
2023-04-03T23:15:19.578Z,1.80
2023-04-03T23:17:47.230Z,1.70
2023-04-03T23:20:14.302Z,1.60
2023-04-03T23:22:42.679Z,1.70
2023-04-03T23:25:09.804Z,1.70
2023-04-03T23:27:36.756Z,1.60
2023-04-03T23:30:04.246Z,1.50
2023-04-03T23:32:31.517Z,1.50
2023-04-03T23:34:58.469Z,1.50
2023-04-03T23:37:25.569Z,1.40
2023-04-03T23:39:52.527Z,1.40
2023-04-03T23:42:19.407Z,1.30
2023-04-03T23:44:46.905Z,1.10
2023-04-03T23:47:13.817Z,1.10
2023-04-03T23:49:40.748Z,1.10
2023-04-03T23:52:08.050Z,1.10
2023-04-03T23:54:34.925Z,1.10
2023-04-03T23:57:01.980Z,1.00
2023-04-03T23:59:30.861Z,0.90
